Tiempo atmosférico en la estación meteorológica de La Riba de Escalote, Soria (1042 m.)



Fecha
DESCASC
Temp. máxima en grados centígrados (hora)
DESCASC
Temp. mínima en grados centígrados (hora)
DESCASC
Temp. media en grados centígrados
DESCASC
Racha de viento máxima en m/sg (hora)
DESCASC
Velocidad máxima media en intervalos de 10 minutos(hora)
DESCASC
Precipitaciones diarias en mm
DESCASC
Precipitaciones de 00:00 a 06:00 en mm
DESCASC
Precipitaciones de 06:00 a 12:00 en mm
DESCASC
Precipitaciones de 12:00 a 18:00 en mm
DESCASC
Precipitaciones de 18:00 a 24:00 en mm
DESCASC
17-02-2019 14.2 (15:20) 0.8 (08:20) 7.5 17.78 (00:30) 13.61 (00:30) 0 0 0 0 0
16-02-2019 14.5 (16:20) -0.8 (01:20) 6.8 14.17 (23:59) 10 (23:59) 0 0 0 0 0
15-02-2019 15.4 (15:50) -2.2 (08:20) 6.6 9.44 (02:20) 7.78 (02:30) 0 0 0 0 0
14-02-2019 13.8 (16:00) 0.3 (00:00) 7.1 10.56 (13:00) 6.94 (12:50) 0 0 0 0 0
13-02-2019 15.1 (16:50) -2.4 (-00:0) 6.4 5.28 (15:30) 4.44 (18:50) 0 0 0 0 0
12-02-2019 12.9 (16:00) -5.1 (-00:0) 3.9 6.39 (20:40) 5.56 (20:30) 0 0 0 0 0
11-02-2019 9.3 (16:20) 1.1 (00:00) 5.2 9.44 (15:10) 5.83 (03:10) 0 0 0 0 0
10-02-2019 12.3 (14:50) 2 (00:00) 7.2 20 (14:30) 13.61 (16:00) 0 0 0 0 0
09-02-2019 12.2 (16:00) 1.8 (00:00) 7 11.67 (18:00) 8.89 (16:40) 0 0 0 0 0
08-02-2019 13.9 (15:30) -3 (-00:0) 5.4 10 (18:00) 7.22 (18:00) 0 0 0 0 0
07-02-2019 10.8 (16:10) 0.2 (00:00) 5.5 11.11 (03:50) 8.89 (03:50) 0 0 0 0 0
06-02-2019 15.7 (15:20) -3 (08:00) 6.3 7.78 (17:30) 5.83 (17:30) 0 0 0 0 0
05-02-2019 12.2 (16:20) -2.2 (06:40) 5 8.89 (15:20) 6.94 (15:20) 0 0 0 0 0
04-02-2019 7.8 (15:30) -4.6 (-00:0) 1.6 9.72 (10:40) 7.5 (11:10) 0 0 0 0 0
03-02-2019 3.6 (15:50) -2.9 (-00:0) 0.3 19.72 (08:50) 13.89 (09:30) -- 0 0 0 --
02-02-2019 1.9 (15:00) -1.5 (-00:0) 0.2 27.22 (13:00) 18.61 (07:50) 0 0 0 0 0
01-02-2019 7.3 (00:50) 0.2 (00:00) 3.8 24.17 (15:50) 16.94 (15:50) 5.4 3.4 0 1.8 0.2
31-01-2019 11.6 (15:30) 2.4 (00:00) 7 21.39 (06:10) 14.17 (05:40) 2.4 1.4 0 0 1
30-01-2019 5.9 (15:40) -0.3 (00:00) 2.8 18.33 (01:00) 13.89 (01:00) 5 0 0 0 5
29-01-2019 6.8 (12:40) -0.9 (-00:0) 3 27.22 (15:00) 20 (15:00) 0.4 0 0 0.4 0
28-01-2019 8.6 (15:30) 0.4 (00:00) 4.5 23.61 (12:00) 17.78 (08:10) 0 0 0 0 0
27-01-2019 6.5 (16:50) -0.5 (-00:0) 3 20.28 (17:00) 14.44 (14:40) 0 0 0 0 0
26-01-2019 12.9 (15:50) -2.4 (-00:0) 5.2 8.89 (00:30) 5 (00:30) 0 0 0 0 0
25-01-2019 9.5 (15:00) 2.2 (00:00) 5.9 18.33 (04:40) 12.22 (08:40) 0 0 0 0 0
24-01-2019 8.4 (16:30) 4 (00:00) 6.2 18.06 (05:20) 13.06 (05:20) 0.2 0 0 0.2 0
23-01-2019 7.1 (15:10) 2.2 (00:00) 4.6 21.39 (09:30) 15.83 (10:40) 1.2 0.2 0 0 1
22-01-2019 2.4 (13:00) -1.6 (-00:0) 0.4 17.22 (15:40) 12.78 (15:40) 0.2 0 0 0 0.2
21-01-2019 6.2 (16:00) -1.3 (-00:0) 2.4 13.06 (14:00) 8.61 (18:00) 0 0 0 0 0
20-01-2019 5.6 (14:50) 0.3 (00:00) 2.9 13.33 (14:40) 10 (00:50) 4.4 4.2 0.2 0 0
19-01-2019 3.4 (12:40) -0.3 (00:00) 1.6 13.06 (20:00) 10.28 (20:00) 3.8 0 0 0.4 3.4

Gráficas

Temp. máximas Temp. mínimas Temp. medias Precipitaciones Rachas de viento máximas Velocidades máximas media en intervalos de 10 minutos

Datos horarios

Fecha y hora oficial Temperatura (ºC) Velocidad del viento (km/h) Dirección del viento Racha (km/h) Dirección de racha Precipitación (mm) Presión (hPa) Tendencia (hPa) Humedad (%)
2019-02-17 23:00:00 6.2 14 Sur 26 Sur 0 -- -- 47
2019-02-17 22:00:00 3.8 5 Sudeste 20 Sur 0 -- -- 47
2019-02-17 21:00:00 5.2 17 Sur 23 Sur 0 -- -- 43
2019-02-17 20:00:00 7.3 11 Sur 15 Sudoeste 0 -- -- 37
2019-02-17 19:00:00 9.7 12 Sudoeste 28 Sur 0 -- -- 31
2019-02-17 18:00:00 12.5 21 Sudoeste 40 Sudoeste 0 -- -- 27
2019-02-17 17:00:00 13.4 27 Sudoeste 45 Sudoeste 0 -- -- 26
2019-02-17 16:00:00 13.8 27 Sur 44 Sur 0 -- -- 22
2019-02-17 15:00:00 13.6 28 Sur 42 Sur 0 -- -- 23
2019-02-17 14:00:00 13.2 28 Sur 38 Sur 0 -- -- 22
2019-02-17 13:00:00 11.9 22 Sur 37 Sur 0 -- -- 24
2019-02-17 12:00:00 10.5 27 Sur 40 Sur 0 -- -- 25
2019-02-17 11:00:00 9.1 20 Sur 28 Sur 0 -- -- 26
2019-02-17 10:00:00 5.5 15 Sudeste 24 Sudeste 0 -- -- 35
2019-02-17 09:00:00 1.6 17 Sudeste 22 Sudeste 0 -- -- 43
2019-02-17 08:00:00 1.4 13 Sudeste 15 Sudeste 0 -- -- 42
2019-02-17 07:00:00 1.8 4 Sudeste 14 Sudeste 0 -- -- 40
2019-02-17 06:00:00 2.3 10 Sudeste 15 Este 0 -- -- 39
2019-02-17 05:00:00 3 4 Este 15 Nordeste 0 -- -- 37
2019-02-17 04:00:00 5.4 7 Nordeste 55 Sur 0 -- -- 33
2019-02-17 03:00:00 7.1 42 Sudoeste 60 Sudoeste 0 -- -- 31
2019-02-17 02:00:00 7.4 46 Sudoeste 61 Sur 0 -- -- 31
2019-02-17 01:00:00 7.3 46 Sudoeste 64 Sudoeste 0 -- -- 31
2019-02-17 00:00:00 7.3 36 Sur 51 Sur 0 -- -- 32
2019-02-16 23:00:00 5.6 15 Sur 30 Sur 0 -- -- 41
2019-02-16 22:00:00 5.7 9 Sur 23 Sur 0 -- -- 38
2019-02-16 21:00:00 6.4 10 Sur 18 Sur 0 -- -- 40
2019-02-16 20:00:00 9.3 18 Sur 28 Sudoeste 0 -- -- 31
2019-02-16 19:00:00 11.6 19 Sur 28 Sudoeste 0 -- -- 27
2019-02-16 18:00:00 13.6 20 Sur 34 Sur 0 -- -- 24
2019-02-16 17:00:00 14.4 23 Sur 36 Sur 0 -- -- 26
2019-02-16 16:00:00 14.3 27 Sur 39 Sur 0 -- -- 26
2019-02-16 15:00:00 14.3 23 Sur 33 Sur 0 -- -- 28
2019-02-16 14:00:00 13.7 25 Sur 39 Sur 0 -- -- 37
2019-02-16 13:00:00 13 18 Sur 28 Sudeste 0 -- -- 47
2019-02-16 12:00:00 11.4 14 Sudeste 27 Sudeste 0 -- -- 53
2019-02-16 11:00:00 8.7 17 Sudeste 22 Sudeste 0 -- -- 69
2019-02-16 10:00:00 5 14 Sudeste 22 Sudeste 0 -- -- 84
2019-02-16 09:00:00 1.5 15 Sudeste 22 Sudeste 0 -- -- 92
2019-02-16 08:00:00 0.1 12 Sudeste 15 Sudeste 0 -- -- 92
2019-02-16 07:00:00 -0.1 9 Sudeste 15 Sudeste 0 -- -- 91
2019-02-16 06:00:00 -0.1 11 Sudeste 14 Sudeste 0 -- -- 90
2019-02-16 05:00:00 0.3 6 Sudeste 12 Sudeste 0 -- -- 86
2019-02-16 04:00:00 0.4 4 Sudeste 10 Sudeste 0 -- -- 87
2019-02-16 03:00:00 0.3 7 Sudeste 9 Sudeste 0 -- -- 87
2019-02-16 02:00:00 -0.2 4 Sudeste 10 Sudeste 0 -- -- 81
2019-02-16 01:00:00 -0.3 4 Sudeste 7 Sudeste 0 -- -- 74
2019-02-16 00:00:00 0.4 0 Calma 3 Sudeste 0 -- -- 71
2019-02-15 23:00:00 1.3 0 Calma 6 Sudeste 0 -- -- 66
2019-02-15 22:00:00 2.9 3 Sudeste 6 Sudeste 0 -- -- 58
2019-02-15 21:00:00 5 4 Sur 14 Sudeste 0 -- -- 52
2019-02-15 20:00:00 7 12 Sudeste 19 Sudeste 0 -- -- 49
2019-02-15 19:00:00 9.5 17 Sudeste 24 Este 0 -- -- 43
2019-02-15 18:00:00 13.1 18 Sudeste 21 Este 0 -- -- 33
2019-02-15 17:00:00 14.6 13 Este 20 Este 0 -- -- 30
2019-02-15 16:00:00 15.3 12 Este 23 Este 0 -- -- 28
2019-02-15 15:00:00 15.3 10 Sudeste 20 Este 0 -- -- 34
2019-02-15 14:00:00 14.5 7 Este 16 Sudeste 0 -- -- 38
2019-02-15 13:00:00 13.6 8 Sur 19 Sudeste 0 -- -- 41
2019-02-15 12:00:00 11.9 11 Sudeste 19 Sudeste 0 -- -- 44
2019-02-15 11:00:00 8.6 5 Este 8 Este 0 -- -- 66
2019-02-15 10:00:00 2.4 2 Este 5 Este 0 -- -- 84
2019-02-15 09:00:00 -1.3 0 Calma 5 Sudeste 0 -- -- 87
2019-02-15 08:00:00 -1.4 2 Sudeste 4 Oeste 0 -- -- 84
2019-02-15 07:00:00 -0.5 0 Calma 3 Oeste 0 -- -- 82
2019-02-15 06:00:00 0.7 0 Calma 15 Sur 0 -- -- 79
2019-02-15 05:00:00 1.8 7 Sudeste 13 Este 0 -- -- 75
2019-02-15 04:00:00 2.8 6 Sudeste 24 Sudoeste 0 -- -- 72
2019-02-15 03:00:00 5.5 18 Sudoeste 34 Sur 0 -- -- 64
2019-02-15 02:00:00 5.7 22 Sudoeste 30 Sur 0 -- -- 63
2019-02-15 01:00:00 1.9 10 Este 18 Este 0 -- -- 70
2019-02-15 00:00:00 2.9 7 Este 18 Sur 0 -- -- 67
2019-02-14 23:00:00 3.3 8 Este 15 Sudeste 0 -- -- 62
2019-02-14 22:00:00 4.1 10 Sudeste 15 Sudeste 0 -- -- 56
2019-02-14 21:00:00 5.7 10 Sudeste 15 Sudeste 0 -- -- 49
2019-02-14 20:00:00 7.7 5 Sur 22 Sudoeste 0 -- -- 41
2019-02-14 19:00:00 9.7 17 Sudoeste 24 Sudoeste 0 -- -- 39
2019-02-14 18:00:00 12.5 16 Sudoeste 28 Sur 0 -- -- 31
2019-02-14 17:00:00 13.7 16 Sur 28 Sur 0 -- -- 28
2019-02-14 16:00:00 13.8 17 Sur 32 Sur 0 -- -- 26
2019-02-14 15:00:00 13.5 22 Sur 31 Sur 0 -- -- 24
2019-02-14 14:00:00 12.8 23 Sur 35 Sur 0 -- -- 23
2019-02-14 13:00:00 12.2 25 Sur 38 Sudoeste 0 -- -- 22
2019-02-14 12:00:00 11.1 22 Sur 35 Sur 0 -- -- 24
2019-02-14 11:00:00 9.9 16 Sur 27 Sur 0 -- -- 33
2019-02-14 10:00:00 6.7 12 Sudeste 15 Sudeste 0 -- -- 48
2019-02-14 09:00:00 2.5 10 Sudeste 19 Sur 0 -- -- 60
2019-02-14 08:00:00 0.8 17 Sudeste 21 Sur 0 -- -- 60
2019-02-14 07:00:00 0.6 14 Sudeste 18 Sudeste 0 -- -- 62
2019-02-14 06:00:00 1.1 13 Sudeste 19 Sur 0 -- -- 62
2019-02-14 05:00:00 1.3 12 Sudeste 17 Sur 0 -- -- 60
2019-02-14 04:00:00 2.7 10 Sur 27 Sudoeste 0 -- -- 61
2019-02-14 03:00:00 2.7 16 Sur 18 Sur 0 -- -- 67
2019-02-14 02:00:00 2 4 Sudoeste 18 Sur 0 -- -- 77
2019-02-14 01:00:00 2.7 9 Sudeste 13 Sudeste 0 -- -- 82
2019-02-14 00:00:00 3.4 10 Sudeste 12 Sudeste 0 -- -- 78
2019-02-13 23:00:00 4.1 13 Sudeste 16 Sudeste 0 -- -- 76
2019-02-13 22:00:00 4.7 13 Sudeste 14 Este 0 -- -- 70
2019-02-13 21:00:00 6.7 8 Sudeste 12 Sudeste 0 -- -- 60
2019-02-13 20:00:00 7.8 7 Sudeste 15 Sudoeste 0 -- -- 50
2019-02-13 19:00:00 11.4 15 Sudoeste 17 Sudoeste 0 -- -- 44
2019-02-13 18:00:00 14.1 12 Sur 15 Sur 0 -- -- 37
2019-02-13 17:00:00 14.9 9 Sudeste 17 Sur 0 -- -- 32
2019-02-13 16:00:00 14.8 9 Sudeste 19 Sudeste 0 -- -- 32
2019-02-13 15:00:00 14.8 7 Sur 17 Sudeste 0 -- -- 31
2019-02-13 14:00:00 13.8 6 Sudeste 13 Sudeste 0 -- -- 35
2019-02-13 13:00:00 12.5 5 Este 10 Este 0 -- -- 39
2019-02-13 12:00:00 10.8 3 Nordeste 9 Este 0 -- -- 46
2019-02-13 11:00:00 7.6 0 Calma 4 Este 0 -- -- 67
2019-02-13 10:00:00 3.1 0 Calma 4 Sudeste 0 -- -- 79
2019-02-13 09:00:00 -0.8 0 Calma 4 Sudeste 0 -- -- 86
2019-02-13 08:00:00 -1.7 0 Calma 4 Sudeste 0 -- -- 84
2019-02-13 07:00:00 -1.6 0 Calma 4 Sudeste 0 -- -- 83
2019-02-13 06:00:00 -1.2 0 Calma 5 Sudeste 0 -- -- 80
2019-02-13 05:00:00 -0.6 3 Sudeste 6 Sudeste 0 -- -- 79
2019-02-13 04:00:00 -0.3 3 Sudeste 6 Sudeste 0 -- -- 78
2019-02-13 03:00:00 0.6 4 Sudeste 8 Sudeste 0 -- -- 76
2019-02-13 02:00:00 0.6 0 Calma 3 Oeste 0 -- -- 71
2019-02-13 01:00:00 1.4 0 Calma 7 Sudeste 0 -- -- 67
2019-02-13 00:00:00 2.1 4 Sudeste 10 Este 0 -- -- 66
2019-02-12 23:00:00 2.6 6 Sudeste 13 Sudeste 0 -- -- 64
2019-02-12 22:00:00 3.1 10 Este 13 Este 0 -- -- 61
2019-02-12 21:00:00 4.9 4 Este 23 Sudoeste 0 -- -- 54
2019-02-12 20:00:00 6.1 0 Calma 17 Sudoeste 0 -- -- 51
2019-02-12 19:00:00 8.3 13 Sur 17 Sudoeste 0 -- -- 46
2019-02-12 18:00:00 10.6 12 Sur 18 Sur 0 -- -- 39
2019-02-12 17:00:00 11.4 13 Sur 22 Sur 0 -- -- 36
2019-02-12 16:00:00 12.9 12 Sur 22 Sur 0 -- -- 36
2019-02-12 15:00:00 11.8 10 Sudeste 22 Sur 0 -- -- 38
2019-02-12 14:00:00 10.6 12 Sudeste 22 Sudeste 0 -- -- 40
2019-02-12 13:00:00 9.1 12 Sudeste 22 Este 0 -- -- 47
2019-02-12 12:00:00 6.6 13 Sudeste 21 Sudeste 0 -- -- 57
2019-02-12 11:00:00 4.3 11 Este 16 Este 0 -- -- 76
2019-02-12 10:00:00 -1 3 Sudeste 8 Oeste 0 -- -- 95
2019-02-12 09:00:00 -4.5 4 Sudoeste 9 Sudeste 0 -- -- 93
2019-02-12 08:00:00 -4.7 0 Calma -- -- 0 -- -- 95
2019-02-12 07:00:00 -4.2 0 Calma 3 Sudeste 0 -- -- 94
2019-02-12 06:00:00 -3.9 0 Calma 13 Sur 0 -- -- 95
2019-02-12 05:00:00 -3.6 0 Calma 4 Sudeste 0 -- -- 92
2019-02-12 04:00:00 -2.5 0 Calma 4 Sudeste 0 -- -- 90
2019-02-12 03:00:00 -1.9 0 Calma 4 Noroeste 0 -- -- 90
2019-02-12 02:00:00 -1.1 4 Sur 8 Sudeste 0 -- -- 90
2019-02-12 01:00:00 0 2 Nordeste 11 Sudeste 0 -- -- 85
2019-02-12 00:00:00 1.1 6 Este 20 Este 0 -- -- 83
2019-02-11 23:00:00 1.3 6 Nordeste 16 Nordeste 0 -- -- 81
2019-02-11 22:00:00 1.6 5 Norte 12 Este 0 -- -- 78
2019-02-11 21:00:00 2.2 8 Nordeste 20 Nordeste 0 -- -- 78
2019-02-11 20:00:00 3.2 9 Nordeste 15 Nordeste 0 -- -- 72
2019-02-11 19:00:00 4.5 12 Nordeste 21 Nordeste 0 -- -- 65
2019-02-11 18:00:00 6.5 10 Nordeste 21 Nordeste 0 -- -- 59
2019-02-11 17:00:00 8.1 13 Nordeste 25 Nordeste 0 -- -- 55
2019-02-11 16:00:00 9.1 17 Norte 34 Norte 0 -- -- 52
2019-02-11 15:00:00 8.3 19 Norte 32 Norte 0 -- -- 58
2019-02-11 14:00:00 7.1 11 Norte 23 Norte 0 -- -- 59
2019-02-11 13:00:00 6.3 9 Nordeste 17 Nordeste 0 -- -- 62
2019-02-11 12:00:00 4.9 8 Nordeste 22 Nordeste 0 -- -- 70
2019-02-11 11:00:00 2 3 Oeste 11 Noroeste 0 -- -- 91
2019-02-11 10:00:00 1.5 9 Noroeste 13 Noroeste 0 -- -- 94
2019-02-11 09:00:00 1.3 6 Noroeste 12 Oeste 0 -- -- 96
2019-02-11 08:00:00 1.3 6 Noroeste 11 Noroeste 0 -- -- 96
2019-02-11 07:00:00 1.5 6 Noroeste 14 Norte 0 -- -- 95
2019-02-11 06:00:00 2 11 Norte 24 Norte 0 -- -- 96
2019-02-11 05:00:00 1.9 14 Norte 31 Noroeste 0 -- -- 94
2019-02-11 04:00:00 2.2 21 Noroeste 28 Noroeste 0 -- -- 92
2019-02-11 03:00:00 4.6 18 Noroeste 26 Noroeste 0 -- -- 82
2019-02-11 02:00:00 4.3 18 Oeste 24 Oeste 0 -- -- 84
2019-02-11 01:00:00 5.5 15 Oeste 24 Oeste 0 -- -- 81
2019-02-11 00:00:00 6.5 18 Oeste 38 Noroeste 0 -- -- 78
2019-02-10 23:00:00 7.5 19 Noroeste 40 Noroeste 0 -- -- 78
2019-02-10 22:00:00 8.2 27 Oeste 39 Oeste 0 -- -- 83
2019-02-10 21:00:00 7.9 21 Oeste 44 Oeste 0 -- -- 84
2019-02-10 20:00:00 8.7 28 Oeste 46 Oeste 0 -- -- 82
2019-02-10 19:00:00 9.1 36 Oeste 50 Oeste 0 -- -- 82
2019-02-10 18:00:00 9.6 30 Oeste 60 Oeste 0 -- -- 82
2019-02-10 17:00:00 11 42 Oeste 67 Oeste 0 -- -- 73
2019-02-10 16:00:00 11.4 49 Oeste 69 Oeste 0 -- -- 69
2019-02-10 15:00:00 12.2 46 Oeste 72 Oeste 0 -- -- 63
2019-02-10 14:00:00 12.1 38 Oeste 55 Oeste 0 -- -- 63
2019-02-10 13:00:00 10.3 23 Oeste 53 Noroeste 0 -- -- 67
2019-02-10 12:00:00 8.1 21 Sudoeste 33 Sudoeste 0 -- -- 77
2019-02-10 11:00:00 5.6 21 Sudoeste 40 Sudoeste 0 -- -- 87
2019-02-10 10:00:00 3.7 25 Sudoeste 35 Sudoeste 0 -- -- 93
2019-02-10 09:00:00 2.6 22 Sudoeste 35 Sudoeste 0 -- -- 94
2019-02-10 08:00:00 2.9 27 Sudoeste 45 Oeste 0 -- -- 90
2019-02-10 07:00:00 4.9 28 Oeste 41 Oeste 0 -- -- 82
2019-02-10 06:00:00 2.2 12 Sudoeste 25 Sudoeste 0 -- -- 95
2019-02-10 05:00:00 2.2 2 Oeste 10 Oeste 0 -- -- 94
2019-02-10 04:00:00 2.5 6 Sudoeste 12 Sudoeste 0 -- -- 93
2019-02-10 03:00:00 2.6 5 Noroeste 10 Oeste 0 -- -- 91
2019-02-10 02:00:00 3.3 0 Calma 11 Sudoeste 0 -- -- 86
2019-02-10 01:00:00 3.6 0 Calma 4 Nordeste 0 -- -- 86
2019-02-10 00:00:00 4 5 Oeste 17 Oeste 0 -- -- 84
2019-02-09 23:00:00 4.1 3 Norte 26 Sudoeste 0 -- -- 81
2019-02-09 22:00:00 5 4 Sudoeste 25 Sudoeste 0 -- -- 77
2019-02-09 21:00:00 5.4 6 Oeste 32 Sudoeste 0 -- -- 75
2019-02-09 20:00:00 6.2 13 Sudoeste 35 Sudoeste 0 -- -- 72
2019-02-09 19:00:00 7.3 27 Sur 38 Sudoeste 0 -- -- 67
2019-02-09 18:00:00 9.2 28 Sudoeste 42 Sudoeste 0 -- -- 63
2019-02-09 17:00:00 10.7 29 Sudoeste 41 Sudoeste 0 -- -- 54
2019-02-09 16:00:00 12.2 24 Sudoeste 35 Sudoeste 0 -- -- 50
2019-02-09 15:00:00 11.7 22 Sudoeste 32 Sudoeste 0 -- -- 53
2019-02-09 14:00:00 11 15 Sudoeste 24 Sudoeste 0 -- -- 56
2019-02-09 13:00:00 9.8 14 Oeste 21 Sudoeste 0 -- -- 60
2019-02-09 12:00:00 8.7 7 Oeste 18 Oeste 0 -- -- 66
2019-02-09 11:00:00 6.9 10 Noroeste 24 Noroeste 0 -- -- 75
2019-02-09 10:00:00 6.2 13 Noroeste 21 Noroeste 0 -- -- 79
2019-02-09 09:00:00 5.2 12 Noroeste 23 Noroeste 0 -- -- 84
2019-02-09 08:00:00 4.9 20 Oeste 32 Oeste 0 -- -- 86
2019-02-09 07:00:00 4.3 10 Noroeste 19 Oeste 0 -- -- 88
2019-02-09 06:00:00 4.5 7 Oeste 14 Oeste 0 -- -- 88
2019-02-09 05:00:00 3.4 3 Nordeste 10 Oeste 0 -- -- 91
2019-02-09 04:00:00 3.1 5 Noroeste 18 Noroeste 0 -- -- 92
2019-02-09 03:00:00 4 17 Noroeste 30 Noroeste 0 -- -- 89
2019-02-09 02:00:00 4.5 14 Noroeste 28 Noroeste 0 -- -- 85
2019-02-09 01:00:00 2.2 11 Noroeste 19 Noroeste 0 -- -- 93
2019-02-09 00:00:00 2.1 3 Norte 10 Oeste 0 -- -- 87
2019-02-08 23:00:00 2.9 3 Norte 6 Oeste 0 -- -- 83
2019-02-08 22:00:00 4.4 3 Norte 10 Sudoeste 0 -- -- 80
2019-02-08 21:00:00 5.3 4 Oeste 9 Oeste 0 -- -- 77
2019-02-08 20:00:00 6.9 0 Calma 28 Sudoeste 0 -- -- 72
2019-02-08 19:00:00 8.7 24 Sudoeste 33 Sudoeste 0 -- -- 66
2019-02-08 18:00:00 10.7 26 Sudoeste 36 Sudoeste 0 -- -- 59
2019-02-08 17:00:00 12.6 23 Sudoeste 33 Sudoeste 0 -- -- 54
2019-02-08 16:00:00 13.4 24 Sur 32 Sur 0 -- -- 52
2019-02-08 15:00:00 13.3 21 Sudoeste 32 Sudoeste 0 -- -- 49
2019-02-08 14:00:00 12.2 19 Sudoeste 28 Sudoeste 0 -- -- 53
2019-02-08 13:00:00 11.3 15 Sudoeste 22 Sudoeste 0 -- -- 56
2019-02-08 12:00:00 8.8 3 Noroeste 8 Oeste 0 -- -- 67
2019-02-08 11:00:00 5.7 2 Este 6 Sudeste 0 -- -- 85
2019-02-08 10:00:00 1.5 2 Sudeste 4 Sudeste 0 -- -- 95
2019-02-08 09:00:00 -1.6 0 Calma 5 Sudeste 0 -- -- 97
2019-02-08 08:00:00 -2.7 0 Calma 8 Sudeste 0 -- -- 94
2019-02-08 07:00:00 -2.8 4 Sudeste 8 Sudeste 0 -- -- 95
2019-02-08 06:00:00 -2.3 0 Calma 4 Sudeste 0 -- -- 94
2019-02-08 05:00:00 -1.6 2 Sudeste 3 Sudeste 0 -- -- 94
2019-02-08 04:00:00 -1.7 4 Sudeste 5 Sudeste 0 -- -- 95
2019-02-08 03:00:00 -1 0 Calma 5 Sudeste 0 -- -- 92
2019-02-08 02:00:00 -0.6 3 Sudeste 6 Este 0 -- -- 94
2019-02-08 01:00:00 -0.4 2 Sudeste 5 Sudeste 0 -- -- 91
2019-02-08 00:00:00 0.2 5 Sudeste 6 Sudeste 0 -- -- 89
2019-02-07 23:00:00 1.6 0 Calma 13 Oeste 0 -- -- 84
2019-02-07 22:00:00 3.4 9 Oeste 13 Oeste 0 -- -- 81
2019-02-07 21:00:00 4 10 Oeste 13 Oeste 0 -- -- 77
2019-02-07 20:00:00 4.3 6 Noroeste 13 Oeste 0 -- -- 77
2019-02-07 19:00:00 6.6 7 Noroeste 15 Noroeste 0 -- -- 69
2019-02-07 18:00:00 9.4 14 Noroeste 27 Noroeste 0 -- -- 61
2019-02-07 17:00:00 10.3 22 Noroeste 32 Noroeste 0 -- -- 58
2019-02-07 16:00:00 10.7 21 Noroeste 34 Noroeste 0 -- -- 55
2019-02-07 15:00:00 10.1 16 Noroeste 39 Oeste 0 -- -- 59
2019-02-07 14:00:00 8.8 25 Noroeste 38 Noroeste 0 -- -- 60
2019-02-07 13:00:00 8.5 23 Noroeste 36 Noroeste 0 -- -- 63
2019-02-07 12:00:00 8.4 19 Noroeste 29 Noroeste 0 -- -- 63
2019-02-07 11:00:00 5.3 12 Norte 25 Noroeste 0 -- -- 72
2019-02-07 10:00:00 4.8 9 Oeste 18 Oeste 0 -- -- 71
2019-02-07 09:00:00 2 2 Norte 5 Norte 0 -- -- 83
2019-02-07 08:00:00 1.3 0 Calma 10 Noroeste 0 -- -- 80
2019-02-07 07:00:00 2.3 4 Oeste 12 Oeste 0 -- -- 77
2019-02-07 06:00:00 3.3 8 Oeste 21 Oeste 0 -- -- 75
2019-02-07 05:00:00 5.2 19 Noroeste 35 Noroeste 0 -- -- 68
2019-02-07 04:00:00 6.3 32 Noroeste 40 Oeste 0 -- -- 72
2019-02-07 03:00:00 3.6 0 Calma 6 Sudeste 0 -- -- 86
2019-02-07 02:00:00 3.1 0 Calma 8 Sudeste 0 -- -- 88
2019-02-07 01:00:00 1.7 5 Sudeste 8 Sudeste 0 -- -- 88
2019-02-07 00:00:00 2.4 3 Sudeste 7 Sudeste 0 -- -- 87
2019-02-06 23:00:00 3 0 Calma 4 Sudeste 0 -- -- 83
2019-02-06 22:00:00 4.3 0 Calma 5 Este 0 -- -- 79
2019-02-06 21:00:00 6.4 2 Oeste 9 Sudoeste 0 -- -- 71
2019-02-06 20:00:00 8.6 0 Calma 13 Oeste 0 -- -- 68
2019-02-06 19:00:00 9.4 10 Oeste 18 Noroeste 0 -- -- 68
2019-02-06 18:00:00 12.5 15 Noroeste 28 Oeste 0 -- -- 56
2019-02-06 17:00:00 14.5 15 Noroeste 22 Noroeste 0 -- -- 49
2019-02-06 16:00:00 15.4 10 Norte 15 Oeste 0 -- -- 47
2019-02-06 15:00:00 15.3 7 Oeste 15 Sudoeste 0 -- -- 43
2019-02-06 14:00:00 13.6 5 Noroeste 14 Este 0 -- -- 55
2019-02-06 13:00:00 12.5 3 Noroeste 9 Noroeste 0 -- -- 55
2019-02-06 12:00:00 10.4 3 Noroeste 6 Noroeste 0 -- -- 69
2019-02-06 11:00:00 6.3 3 Este 5 Sudeste 0 -- -- 88
2019-02-06 10:00:00 1 2 Sudeste 6 Sudeste 0 -- -- 96
2019-02-06 09:00:00 -1.9 0 Calma 3 Sudeste 0 -- -- 96
2019-02-06 08:00:00 -3 2 Sudeste 4 Sudeste 0 -- -- 95
2019-02-06 07:00:00 -2.4 0 Calma 3 Oeste 0 -- -- 96
2019-02-06 06:00:00 -2.3 0 Calma 3 Este 0 -- -- 95
2019-02-06 05:00:00 -2.2 3 Sudeste 4 Sudeste 0 -- -- 94
2019-02-06 04:00:00 -1.6 3 Sudeste 4 Sudeste 0 -- -- 95
2019-02-06 03:00:00 -0.9 0 Calma 5 Sudeste 0 -- -- 94
2019-02-06 02:00:00 -0.2 0 Calma 4 Sudeste 0 -- -- 93
2019-02-06 01:00:00 0.4 0 Calma 3 Noroeste 0 -- -- 91
2019-02-06 00:00:00 1.6 0 Calma 5 Sudeste 0 -- -- 89
2019-02-05 23:00:00 2.5 2 Sudeste 7 Oeste 0 -- -- 86
2019-02-05 22:00:00 3.5 5 Oeste 8 Oeste 0 -- -- 84
2019-02-05 21:00:00 5.5 7 Oeste 12 Oeste 0 -- -- 77
2019-02-05 20:00:00 6.7 5 Oeste 9 Oeste 0 -- -- 72
2019-02-05 19:00:00 8.2 4 Norte 17 Noroeste 0 -- -- 67
2019-02-05 18:00:00 10.7 12 Noroeste 31 Noroeste 0 -- -- 59
2019-02-05 17:00:00 11.6 21 Noroeste 30 Noroeste 0 -- -- 55
2019-02-05 16:00:00 12 21 Noroeste 32 Oeste 0 -- -- 54
2019-02-05 15:00:00 12.1 22 Noroeste 31 Noroeste 0 -- -- 55
2019-02-05 14:00:00 11.2 16 Noroeste 27 Norte 0 -- -- 58
2019-02-05 13:00:00 9.9 18 Noroeste 30 Oeste 0 -- -- 58
2019-02-05 12:00:00 8.7 16 Noroeste 25 Noroeste 0 -- -- 59
2019-02-05 11:00:00 5.7 4 Noroeste 8 Noroeste 0 -- -- 64
2019-02-05 10:00:00 2.3 2 Este 6 Sudeste 0 -- -- 74
2019-02-05 09:00:00 -1.3 5 Sudeste 7 Sudeste 0 -- -- 83
2019-02-05 08:00:00 -1.8 4 Oeste 7 Oeste 0 -- -- 84
2019-02-05 07:00:00 -1.6 0 Calma 5 Noroeste 0 -- -- 83
2019-02-05 06:00:00 -1.8 0 Calma 5 Sudeste 0 -- -- 85
2019-02-05 05:00:00 -1.1 0 Calma 5 Noroeste 0 -- -- 80
2019-02-05 04:00:00 -0.3 3 Oeste 6 Sudeste 0 -- -- 77
2019-02-05 03:00:00 -0.2 2 Sudoeste 8 Oeste 0 -- -- 77
2019-02-05 02:00:00 -0.1 0 Calma 3 Oeste 0 -- -- 76
2019-02-05 01:00:00 0 2 Noroeste 6 Oeste 0 -- -- 76
2019-02-05 00:00:00 1 4 Oeste 7 Noroeste 0 -- -- 72
2019-02-04 23:00:00 0.3 8 Oeste 12 Oeste 0 -- -- 75
2019-02-04 22:00:00 2 3 Oeste 13 Noroeste 0 -- -- 67
2019-02-04 21:00:00 2.6 3 Oeste 15 Noroeste 0 -- -- 64
2019-02-04 20:00:00 3.1 3 Oeste 17 Oeste 0 -- -- 61
2019-02-04 19:00:00 3.9 5 Norte 14 Noroeste 0 -- -- 59
2019-02-04 18:00:00 5.6 12 Noroeste 19 Noroeste 0 -- -- 56
2019-02-04 17:00:00 7 15 Noroeste 27 Noroeste 0 -- -- 43
2019-02-04 16:00:00 7.6 20 Noroeste 30 Oeste 0 -- -- 39
2019-02-04 15:00:00 7.6 18 Noroeste 28 Noroeste 0 -- -- 48
2019-02-04 14:00:00 6.6 18 Noroeste 28 Noroeste 0 -- -- 53
2019-02-04 13:00:00 5.6 17 Noroeste 27 Noroeste 0 -- -- 52
2019-02-04 12:00:00 4.3 13 Noroeste 35 Noroeste 0 -- -- 56
2019-02-04 11:00:00 2.7 24 Noroeste 35 Noroeste 0 -- -- 60
2019-02-04 10:00:00 0.9 18 Noroeste 28 Noroeste 0 -- -- 67
2019-02-04 09:00:00 -1.4 6 Noroeste 19 Norte 0 -- -- 76
2019-02-04 08:00:00 -2 11 Noroeste 17 Noroeste 0 -- -- 80
2019-02-04 07:00:00 -3.5 3 Norte 21 Noroeste 0 -- -- 87
2019-02-04 06:00:00 -3.9 13 Noroeste 23 Noroeste 0 -- -- 89
2019-02-04 05:00:00 -4.6 7 Noroeste 10 Noroeste 0 -- -- 89
2019-02-04 04:00:00 -3.7 3 Norte 14 Norte 0 -- -- 89
2019-02-04 03:00:00 -2.9 14 Noroeste 25 Noroeste 0 -- -- 87
2019-02-04 02:00:00 -3.4 4 Noroeste 11 Noroeste 0 -- -- 90
2019-02-04 01:00:00 -3 6 Noroeste 20 Noroeste 0 -- -- 89
2019-02-04 00:00:00 -2.3 14 Noroeste 27 Noroeste 0 -- -- 89
2019-02-03 23:00:00 -2 16 Noroeste 33 Noroeste 0 -- -- 89
2019-02-03 22:00:00 -1.6 20 Noroeste 40 Noroeste 0 -- -- 87
2019-02-03 21:00:00 -1 27 Noroeste 39 Noroeste 0 -- -- 84
2019-02-03 20:00:00 -0.8 22 Noroeste 32 Noroeste 0 -- -- 81
2019-02-03 19:00:00 0.3 24 Noroeste -- -- -- -- -- 77
2019-02-03 18:00:00 2 26 Noroeste 46 Noroeste 0 -- -- 69
2019-02-03 17:00:00 3 28 Noroeste 45 Noroeste 0 -- -- 60
2019-02-03 16:00:00 3.6 30 Noroeste 51 Noroeste 0 -- -- 58
2019-02-03 15:00:00 3.2 31 Noroeste 55 Noroeste 0 -- -- 61
2019-02-03 14:00:00 1.5 34 Noroeste 62 Oeste 0 -- -- 68
2019-02-03 13:00:00 1 42 Noroeste 66 Noroeste 0 -- -- 70
2019-02-03 12:00:00 0.7 41 Noroeste 64 Noroeste 0 -- -- 74
2019-02-03 11:00:00 -0.6 47 Noroeste 68 Noroeste 0 -- -- 79
2019-02-03 10:00:00 -1.5 46 Noroeste 69 Noroeste 0 -- -- 81
2019-02-03 09:00:00 -2.6 49 Noroeste 71 Noroeste 0 -- -- 88
2019-02-03 08:00:00 -2.7 46 Noroeste 67 Noroeste 0 -- -- 87
2019-02-03 07:00:00 -2.8 42 Noroeste 66 Noroeste 0 -- -- 88
2019-02-03 06:00:00 -2.8 37 Noroeste 56 Noroeste 0 -- -- 88
2019-02-03 05:00:00 -2.7 38 Noroeste 51 Noroeste 0 -- -- 85
2019-02-03 04:00:00 -2.4 36 Noroeste 56 Noroeste 0 -- -- 89
2019-02-03 03:00:00 -2.2 35 Noroeste 54 Noroeste 0 -- -- 89
2019-02-03 02:00:00 -1.8 38 Noroeste 58 Noroeste 0 -- -- 90
2019-02-03 01:00:00 -1.6 36 Noroeste 55 Noroeste 0 -- -- 86
2019-02-03 00:00:00 -1.3 36 Noroeste 51 Noroeste 0 -- -- 86
2019-02-02 23:00:00 -1 28 Noroeste 62 Noroeste 0 -- -- 83
2019-02-02 22:00:00 -0.8 39 Noroeste 58 Oeste 0 -- -- 83
2019-02-02 21:00:00 -1.1 33 Noroeste 56 Noroeste 0 -- -- 86
2019-02-02 20:00:00 -1.3 31 Noroeste 45 Noroeste 0 -- -- 84
2019-02-02 19:00:00 -0.8 28 Noroeste 47 Noroeste 0 -- -- 79
2019-02-02 18:00:00 0 22 Noroeste 55 Noroeste 0 -- -- 77
2019-02-02 17:00:00 0.3 35 Noroeste 68 Noroeste 0 -- -- 74
2019-02-02 16:00:00 1.2 42 Noroeste 74 Noroeste 0 -- -- 72
2019-02-02 15:00:00 1.9 49 Noroeste 81 Noroeste 0 -- -- 66
2019-02-02 14:00:00 1.2 59 Noroeste 91 Noroeste 0 -- -- 71
2019-02-02 13:00:00 0.8 63 Noroeste 98 Noroeste 0 -- -- 77
2019-02-02 12:00:00 0.6 54 Noroeste 86 Oeste 0 -- -- 79
2019-02-02 11:00:00 0.1 54 Noroeste 90 Noroeste 0 -- -- 79
2019-02-02 10:00:00 -0.5 52 Noroeste 81 Noroeste 0 -- -- 86
2019-02-02 09:00:00 -0.7 60 Noroeste 85 Noroeste 0 -- -- 88
2019-02-02 08:00:00 -0.3 59 Noroeste 84 Oeste 0 -- -- 87
2019-02-02 07:00:00 -0.2 55 Noroeste 81 Oeste 0 -- -- 88
2019-02-02 06:00:00 0.1 60 Oeste 79 Oeste 0 -- -- 85
2019-02-02 05:00:00 0 50 Oeste 68 Oeste 0 -- -- 86
2019-02-02 04:00:00 0.4 50 Oeste 82 Oeste 0 -- -- 84
2019-02-02 03:00:00 0.5 52 Oeste 80 Oeste 0 -- -- 86
2019-02-02 02:00:00 0.7 57 Oeste 88 Oeste 0 -- -- 87
2019-02-02 01:00:00 0.6 51 Oeste 73 Oeste 0 -- -- 96
2019-02-02 00:00:00 0.4 54 Oeste 80 Oeste 0 -- -- 96
2019-02-01 23:00:00 1 57 Oeste 79 Oeste 0 -- -- 89
2019-02-01 22:00:00 0.6 37 Oeste 73 Oeste 0 -- -- 94
2019-02-01 21:00:00 0.9 49 Oeste 67 Oeste 0 -- -- 86
2019-02-01 20:00:00 0.6 34 Oeste 58 Oeste 0 -- -- 89
2019-02-01 19:00:00 1.2 32 Oeste 57 Oeste 0.2 -- -- 84
2019-02-01 18:00:00 1.1 34 Oeste 74 Oeste 0.8 -- -- 86
2019-02-01 17:00:00 0.6 39 Oeste 70 Oeste 0.6 -- -- 96
2019-02-01 16:00:00 0.8 55 Oeste 87 Oeste 0.4 -- -- 93
2019-02-01 15:00:00 4.3 31 Sudoeste 55 Sudoeste 0 -- -- 83
2019-02-01 14:00:00 6.1 37 Sudoeste 56 Oeste 0 -- -- 67
2019-02-01 13:00:00 5.9 28 Oeste 57 Sudoeste 0 -- -- 60
2019-02-01 12:00:00 6 36 Oeste 61 Oeste 0 -- -- 61
2019-02-01 11:00:00 4.2 27 Oeste 43 Oeste 0 -- -- 70
2019-02-01 10:00:00 4 22 Oeste 43 Oeste 0 -- -- 78
2019-02-01 09:00:00 3.1 27 Oeste 45 Oeste 0 -- -- 81
2019-02-01 08:00:00 4 23 Oeste 45 Sudoeste 0 -- -- 76
2019-02-01 07:00:00 4.2 28 Oeste 45 Oeste 0 -- -- 77
2019-02-01 06:00:00 4.4 31 Oeste 58 Oeste 0 -- -- 78
2019-02-01 05:00:00 4.7 31 Oeste 51 Oeste 0 -- -- 80
2019-02-01 04:00:00 3.9 31 Oeste 66 Oeste 0.4 -- -- 90
2019-02-01 03:00:00 6 31 Oeste 57 Oeste 0.6 -- -- 88
2019-02-01 02:00:00 7.2 23 Oeste 48 Oeste 1.6 -- -- 95
2019-02-01 01:00:00 7.3 35 Sudoeste 62 Sudoeste 0.8 -- -- 94
2019-02-01 00:00:00 7.1 43 Sudoeste 66 Sudoeste 0.2 -- -- 94
2019-01-31 23:00:00 7.1 39 Sudoeste 65 Sudoeste 0.2 -- -- 94
2019-01-31 22:00:00 7.4 42 Sudoeste 63 Sudoeste 0 -- -- 94
2019-01-31 21:00:00 7.9 35 Sudoeste 56 Sudoeste 0.4 -- -- 93
2019-01-31 20:00:00 8.3 40 Sudoeste 54 Sudoeste 0 -- -- 92
2019-01-31 19:00:00 8.2 35 Sudoeste 58 Sudoeste 0.2 -- -- 93
2019-01-31 18:00:00 8.5 39 Sudoeste 58 Sudoeste 0 -- -- 91
2019-01-31 17:00:00 9.2 30 Sudoeste 48 Sudoeste 0 -- -- 90
2019-01-31 16:00:00 9.3 34 Sudoeste 48 Sudoeste 0 -- -- 87
2019-01-31 15:00:00 10.9 30 Sudoeste 55 Oeste 0 -- -- 76
2019-01-31 14:00:00 10.7 29 Oeste 47 Oeste 0 -- -- 78
2019-01-31 13:00:00 9.8 31 Sudoeste 46 Oeste 0 -- -- 81
2019-01-31 12:00:00 9.3 34 Sudoeste 51 Oeste 0 -- -- 80
2019-01-31 11:00:00 8.5 26 Oeste 57 Sudoeste 0 -- -- 81
2019-01-31 10:00:00 7.5 37 Oeste 51 Oeste 0 -- -- 79
2019-01-31 09:00:00 7.6 28 Oeste 48 Oeste 0 -- -- 81
2019-01-31 08:00:00 7.8 27 Oeste 60 Oeste 0 -- -- 81
2019-01-31 07:00:00 8.2 40 Oeste 77 Oeste 0 -- -- 82
2019-01-31 06:00:00 8.2 49 Oeste 75 Oeste 0 -- -- 86
2019-01-31 05:00:00 7.8 44 Oeste 68 Oeste 0 -- -- 90
2019-01-31 04:00:00 5 23 Sudoeste 42 Sudoeste 0.2 -- -- 95
2019-01-31 03:00:00 4.2 30 Sudoeste 47 Sudoeste 0.2 -- -- 95
2019-01-31 02:00:00 3.6 35 Sudoeste 50 Sudoeste 0.2 -- -- 95
2019-01-31 01:00:00 2.9 36 Sudoeste 54 Sudoeste 0.8 -- -- 94
2019-01-31 00:00:00 2.4 40 Sudoeste 57 Sudoeste 0.4 -- -- 94
2019-01-30 23:00:00 1.6 44 Sudoeste 58 Sudoeste 0.8 -- -- 95
2019-01-30 22:00:00 1.3 40 Sudoeste 51 Sudoeste 2 -- -- 95
2019-01-30 21:00:00 1.4 32 Sudoeste 43 Sudoeste 1.2 -- -- 94
2019-01-30 20:00:00 1.9 29 Sudoeste 38 Sudoeste 0.4 -- -- 90
2019-01-30 19:00:00 2.7 14 Sudoeste 27 Oeste 0.2 -- -- 87
2019-01-30 18:00:00 2.9 20 Oeste 55 Oeste 0 -- -- 79
2019-01-30 17:00:00 5.1 30 Noroeste 50 Oeste 0 -- -- 58
2019-01-30 16:00:00 5.5 36 Noroeste 49 Noroeste 0 -- -- 50
2019-01-30 15:00:00 5.7 32 Oeste 48 Oeste 0 -- -- 48
2019-01-30 14:00:00 4.2 34 Oeste 54 Oeste 0 -- -- 58
2019-01-30 13:00:00 3 32 Oeste 50 Oeste 0 -- -- 68
2019-01-30 12:00:00 1.7 37 Oeste 50 Oeste 0 -- -- 74
2019-01-30 11:00:00 1.7 32 Noroeste 46 Oeste 0 -- -- 78
2019-01-30 10:00:00 0.4 28 Oeste 41 Oeste 0 -- -- 83
2019-01-30 09:00:00 -0.2 19 Oeste 31 Oeste 0 -- -- 87
2019-01-30 08:00:00 -0.3 15 Oeste 25 Oeste 0 -- -- 88
2019-01-30 07:00:00 0 21 Oeste 32 Oeste 0 -- -- 86
2019-01-30 06:00:00 0.2 17 Noroeste 33 Noroeste 0 -- -- 88
2019-01-30 05:00:00 0.9 28 Noroeste 40 Oeste 0 -- -- 87
2019-01-30 04:00:00 1 27 Noroeste 47 Oeste 0 -- -- 87
2019-01-30 03:00:00 1.5 26 Noroeste 61 Noroeste 0 -- -- 85
2019-01-30 02:00:00 2.2 43 Noroeste 64 Oeste 0 -- -- 79
2019-01-30 01:00:00 2.3 50 Noroeste 66 Noroeste 0 -- -- 79
2019-01-30 00:00:00 2.6 39 Noroeste 53 Noroeste 0 -- -- 79
2019-01-29 23:00:00 2.8 35 Oeste 57 Oeste 0 -- -- 78
2019-01-29 22:00:00 3 36 Oeste 54 Oeste 0 -- -- 83
2019-01-29 21:00:00 4 36 Oeste 57 Noroeste 0 -- -- 81
2019-01-29 20:00:00 4.8 41 Oeste 62 Noroeste 0 -- -- 84
2019-01-29 19:00:00 5.2 49 Oeste 72 Oeste 0 -- -- 83
2019-01-29 18:00:00 5.6 51 Oeste 80 Oeste 0 -- -- 86
2019-01-29 17:00:00 5.6 48 Oeste 77 Oeste 0.4 -- -- 91
2019-01-29 16:00:00 6.5 53 Oeste 81 Oeste 0 -- -- 82
2019-01-29 15:00:00 6.6 72 Oeste 98 Oeste 0 -- -- 79
2019-01-29 14:00:00 6.2 37 Oeste 68 Oeste 0 -- -- 79
2019-01-29 13:00:00 6.4 45 Oeste 70 Noroeste 0 -- -- 77
2019-01-29 12:00:00 6.1 53 Oeste 77 Oeste 0 -- -- 79
2019-01-29 11:00:00 4.8 41 Oeste 55 Oeste 0 -- -- 85
2019-01-29 10:00:00 2.8 28 Noroeste 44 Oeste 0 -- -- 87
2019-01-29 09:00:00 1.4 25 Noroeste 40 Noroeste 0 -- -- 88
2019-01-29 08:00:00 1.1 26 Oeste 45 Oeste 0 -- -- 89
2019-01-29 07:00:00 0.9 23 Oeste 40 Oeste 0 -- -- 90
2019-01-29 06:00:00 -0.1 9 Oeste 23 Oeste 0 -- -- 88
2019-01-29 05:00:00 -0.3 10 Oeste 19 Oeste 0 -- -- 85
2019-01-29 04:00:00 -0.5 6 Oeste 17 Oeste 0 -- -- 88
2019-01-29 03:00:00 -0.9 5 Oeste 27 Oeste 0 -- -- 88
2019-01-29 02:00:00 1 22 Noroeste 35 Noroeste 0 -- -- 84
2019-01-29 01:00:00 1.5 24 Noroeste 36 Noroeste 0 -- -- 83
2019-01-29 00:00:00 1 27 Noroeste 40 Oeste 0 -- -- 85
2019-01-28 23:00:00 0.4 16 Oeste 22 Noroeste 0 -- -- 88
2019-01-28 22:00:00 0.5 15 Oeste 21 Noroeste 0 -- -- 87
2019-01-28 21:00:00 2.7 13 Noroeste 28 Noroeste 0 -- -- 79
2019-01-28 20:00:00 3.2 18 Noroeste 45 Noroeste 0 -- -- 79
2019-01-28 19:00:00 4.2 30 Noroeste 50 Noroeste 0 -- -- 77
2019-01-28 18:00:00 5 29 Noroeste 48 Noroeste 0 -- -- 80
2019-01-28 17:00:00 5.2 33 Noroeste 81 Noroeste 0 -- -- 84
2019-01-28 16:00:00 7.9 56 Noroeste 83 Noroeste 0 -- -- 70
2019-01-28 15:00:00 7.5 49 Noroeste 82 Oeste 0 -- -- 69
2019-01-28 14:00:00 6.9 55 Noroeste 77 Noroeste 0 -- -- 72
2019-01-28 13:00:00 5.6 53 Noroeste 82 Oeste 0 -- -- 78
2019-01-28 12:00:00 5.5 63 Oeste 85 Oeste 0 -- -- 76
2019-01-28 11:00:00 4.4 59 Noroeste 84 Noroeste 0 -- -- 81
2019-01-28 10:00:00 3.2 59 Oeste 82 Oeste 0 -- -- 84
2019-01-28 09:00:00 2.6 58 Oeste 85 Oeste 0 -- -- 84
2019-01-28 08:00:00 2.6 59 Oeste 82 Oeste 0 -- -- 79
2019-01-28 07:00:00 2.5 51 Oeste 67 Noroeste 0 -- -- 76
2019-01-28 06:00:00 1.6 37 Noroeste 59 Noroeste 0 -- -- 81
2019-01-28 05:00:00 0.9 37 Noroeste 55 Oeste 0 -- -- 80
2019-01-28 04:00:00 1.1 32 Noroeste 50 Noroeste 0 -- -- 78
2019-01-28 03:00:00 0.5 35 Noroeste 49 Noroeste 0 -- -- 84
2019-01-28 02:00:00 0.5 31 Noroeste 58 Noroeste 0 -- -- 84
2019-01-28 01:00:00 0.9 28 Noroeste 44 Noroeste 0 -- -- 77
2019-01-28 00:00:00 1 27 Noroeste 44 Noroeste 0 -- -- 76
2019-01-27 23:00:00 1.1 22 Noroeste 35 Noroeste 0 -- -- 76
2019-01-27 22:00:00 1.1 22 Noroeste 31 Noroeste 0 -- -- 78
2019-01-27 21:00:00 0.4 8 Noroeste 12 Oeste 0 -- -- 80
2019-01-27 20:00:00 1.9 5 Oeste 20 Norte 0 -- -- 77
2019-01-27 19:00:00 3.2 12 Noroeste 31 Noroeste 0 -- -- 72
2019-01-27 18:00:00 5.8 28 Noroeste 66 Noroeste 0 -- -- 57
2019-01-27 17:00:00 6.5 48 Noroeste 73 Noroeste 0 -- -- 55
2019-01-27 16:00:00 6.4 46 Noroeste 66 Noroeste 0 -- -- 58
2019-01-27 15:00:00 6.3 51 Noroeste 73 Noroeste 0 -- -- 58
2019-01-27 14:00:00 5.3 39 Noroeste 64 Noroeste 0 -- -- 64
2019-01-27 13:00:00 5.6 38 Noroeste 54 Noroeste 0 -- -- 66
2019-01-27 12:00:00 4.4 42 Noroeste 57 Noroeste 0 -- -- 73
2019-01-27 11:00:00 2.8 39 Noroeste 56 Noroeste 0 -- -- 85
2019-01-27 10:00:00 2.6 34 Noroeste 53 Oeste 0 -- -- 85
2019-01-27 09:00:00 3.1 36 Noroeste 59 Oeste 0 -- -- 84
2019-01-27 08:00:00 3.4 32 Noroeste 47 Oeste 0 -- -- 84
2019-01-27 07:00:00 4.4 34 Oeste 46 Oeste 0 -- -- 79
2019-01-27 06:00:00 3.6 21 Noroeste 36 Noroeste 0 -- -- 81
2019-01-27 05:00:00 4.3 19 Oeste 33 Oeste 0 -- -- 79
2019-01-27 04:00:00 5.1 18 Oeste 42 Oeste 0 -- -- 77
2019-01-27 03:00:00 5.7 33 Oeste 55 Oeste 0 -- -- 75
2019-01-27 02:00:00 -0.4 2 Este 9 Este 0 -- -- 89
2019-01-27 01:00:00 -0.5 7 Sudeste 10 Este 0 -- -- 87
2019-01-27 00:00:00 0.9 2 Sur 17 Oeste 0 -- -- 87
2019-01-26 23:00:00 1.6 4 Sudeste 7 Sudeste 0 -- -- 85
2019-01-26 22:00:00 2.7 2 Noroeste 9 Oeste 0 -- -- 81
2019-01-26 21:00:00 4.2 5 Oeste 9 Oeste 0 -- -- 83
2019-01-26 20:00:00 5.2 0 Calma 13 Noroeste 0 -- -- 82
2019-01-26 19:00:00 7.4 4 Norte 6 Norte 0 -- -- 76
2019-01-26 18:00:00 10.4 4 Noroeste 15 Noroeste 0 -- -- 65
2019-01-26 17:00:00 11.8 10 Noroeste 22 Noroeste 0 -- -- 58
2019-01-26 16:00:00 12.8 13 Noroeste 19 Noroeste 0 -- -- 55
2019-01-26 15:00:00 11.8 12 Noroeste 19 Noroeste 0 -- -- 59
2019-01-26 14:00:00 10 12 Noroeste 20 Noroeste 0 -- -- 68
2019-01-26 13:00:00 7.5 9 Norte 15 Norte 0 -- -- 85
2019-01-26 12:00:00 4.2 9 Norte 13 Norte 0 -- -- 100
2019-01-26 11:00:00 -0.1 4 Noroeste 6 Noroeste 0 -- -- 100
2019-01-26 10:00:00 -1.9 3 Oeste 8 Noroeste 0 -- -- 98
2019-01-26 09:00:00 -1.7 7 Noroeste 10 Noroeste 0 -- -- 97
2019-01-26 08:00:00 -1.4 3 Oeste 9 Noroeste 0 -- -- 97
2019-01-26 07:00:00 -0.7 4 Noroeste 6 Norte 0 -- -- 96
2019-01-26 06:00:00 -1.2 5 Oeste 7 Oeste 0 -- -- 95
2019-01-26 05:00:00 -0.9 0 Calma 6 Noroeste 0 -- -- 94
2019-01-26 04:00:00 -0.5 6 Noroeste 9 Oeste 0 -- -- 90
2019-01-26 03:00:00 1.3 2 Oeste 7 Oeste 0 -- -- 92
2019-01-26 02:00:00 1.6 3 Norte 25 Noroeste 0 -- -- 91
2019-01-26 01:00:00 2.8 17 Noroeste 32 Noroeste 0 -- -- 88
2019-01-26 00:00:00 3.1 19 Noroeste 38 Noroeste 0 -- -- 87
2019-01-25 23:00:00 2.2 13 Noroeste 32 Noroeste 0 -- -- 87
2019-01-25 22:00:00 3.2 17 Noroeste 31 Noroeste 0 -- -- 85
2019-01-25 21:00:00 3.9 22 Noroeste 44 Noroeste 0 -- -- 83
2019-01-25 20:00:00 4.8 26 Noroeste 44 Noroeste 0 -- -- 81
2019-01-25 19:00:00 5.6 26 Noroeste 46 Noroeste 0 -- -- 80
2019-01-25 18:00:00 7.2 33 Noroeste 52 Noroeste 0 -- -- 74
2019-01-25 17:00:00 9 27 Noroeste 57 Noroeste 0 -- -- 65
2019-01-25 16:00:00 9.2 43 Noroeste 59 Noroeste 0 -- -- 65
2019-01-25 15:00:00 9.5 38 Noroeste 55 Noroeste 0 -- -- 67
2019-01-25 14:00:00 9.1 35 Noroeste 55 Noroeste 0 -- -- 71
2019-01-25 13:00:00 8 38 Noroeste 49 Noroeste 0 -- -- 78
2019-01-25 12:00:00 7.3 30 Noroeste 51 Noroeste 0 -- -- 81
2019-01-25 11:00:00 6.9 34 Noroeste 61 Noroeste 0 -- -- 82
2019-01-25 10:00:00 5.6 43 Noroeste 60 Noroeste 0 -- -- 90
2019-01-25 09:00:00 4.9 41 Noroeste 65 Noroeste 0 -- -- 92
2019-01-25 08:00:00 4.7 40 Noroeste 62 Noroeste 0 -- -- 93
2019-01-25 07:00:00 4.9 42 Noroeste 65 Noroeste 0 -- -- 92
2019-01-25 06:00:00 4.7 34 Noroeste 59 Noroeste 0 -- -- 90
2019-01-25 05:00:00 4.9 44 Noroeste 66 Noroeste 0 -- -- 89
2019-01-25 04:00:00 5.1 40 Noroeste 58 Noroeste 0 -- -- 89
2019-01-25 03:00:00 5.5 39 Noroeste 54 Noroeste 0 -- -- 90
2019-01-25 02:00:00 5.6 33 Noroeste 46 Noroeste 0 -- -- 91
2019-01-25 01:00:00 6 34 Noroeste 55 Noroeste 0 -- -- 88
2019-01-25 00:00:00 6.2 34 Noroeste 48 Noroeste 0 -- -- 89
2019-01-24 23:00:00 6.2 31 Noroeste 54 Noroeste 0 -- -- 88
2019-01-24 22:00:00 6.3 37 Noroeste 56 Noroeste 0 -- -- 87
2019-01-24 21:00:00 6.2 40 Noroeste 54 Noroeste 0 -- -- 88
2019-01-24 20:00:00 6.6 40 Noroeste 57 Noroeste 0 -- -- 85
2019-01-24 19:00:00 6.4 37 Noroeste 49 Noroeste 0 -- -- 85
2019-01-24 18:00:00 6.7 32 Noroeste 43 Noroeste 0 -- -- 85
2019-01-24 17:00:00 8.1 30 Noroeste 53 Noroeste 0 -- -- 77
2019-01-24 16:00:00 7.8 32 Noroeste 57 Noroeste 0 -- -- 84
2019-01-24 15:00:00 7.4 42 Noroeste 64 Noroeste 0 -- -- 85
2019-01-24 14:00:00 7.3 39 Noroeste 63 Noroeste 0 -- -- 87
2019-01-24 13:00:00 6.3 37 Noroeste 58 Noroeste 0.2 -- -- 92
2019-01-24 12:00:00 5.5 32 Noroeste 52 Noroeste 0 -- -- 94
2019-01-24 11:00:00 5.2 36 Noroeste 50 Noroeste 0 -- -- 95
2019-01-24 10:00:00 5 32 Noroeste 58 Noroeste 0 -- -- 92
2019-01-24 09:00:00 4.7 24 Noroeste 51 Noroeste 0 -- -- 93
2019-01-24 08:00:00 4.7 35 Noroeste 50 Noroeste 0 -- -- 93
2019-01-24 07:00:00 4.5 40 Noroeste 63 Oeste 0 -- -- 93
2019-01-24 06:00:00 4.4 43 Noroeste 65 Oeste 0 -- -- 94
2019-01-24 05:00:00 4.3 45 Noroeste 64 Oeste 0 -- -- 93
2019-01-24 04:00:00 4.4 44 Noroeste 62 Noroeste 0 -- -- 93
2019-01-24 03:00:00 4.1 32 Noroeste 51 Noroeste 0 -- -- 94
2019-01-24 02:00:00 4.4 34 Noroeste 60 Noroeste 0 -- -- 91
2019-01-24 01:00:00 4.4 40 Noroeste 60 Noroeste 0 -- -- 90
2019-01-24 00:00:00 4.5 37 Noroeste 57 Noroeste 0 -- -- 94
2019-01-23 23:00:00 4.5 31 Noroeste 47 Noroeste 1 -- -- 95
2019-01-23 22:00:00 5.2 27 Noroeste 44 Noroeste 0 -- -- 90
2019-01-23 21:00:00 5.5 30 Noroeste 40 Noroeste 0 -- -- 85
2019-01-23 20:00:00 5.5 25 Noroeste 45 Noroeste 0 -- -- 86
2019-01-23 19:00:00 5.8 28 Noroeste 46 Noroeste 0 -- -- 87
2019-01-23 18:00:00 6 28 Noroeste 51 Noroeste 0 -- -- 86
2019-01-23 17:00:00 6.7 35 Noroeste 55 Oeste 0 -- -- 84
2019-01-23 16:00:00 6.7 39 Noroeste 70 Noroeste 0 -- -- 86
2019-01-23 15:00:00 6.9 49 Noroeste 74 Noroeste 0 -- -- 80
2019-01-23 14:00:00 6.4 47 Noroeste 70 Noroeste 0 -- -- 86
2019-01-23 13:00:00 6 47 Noroeste 68 Noroeste 0 -- -- 87
2019-01-23 12:00:00 5.3 44 Oeste 71 Noroeste 0 -- -- 91
2019-01-23 11:00:00 5 54 Noroeste 77 Noroeste 0 -- -- 91
2019-01-23 10:00:00 4.6 56 Noroeste 77 Oeste 0 -- -- 89
2019-01-23 09:00:00 4.1 51 Noroeste 73 Noroeste 0 -- -- 90
2019-01-23 08:00:00 3.7 55 Oeste 75 Oeste 0 -- -- 88
2019-01-23 07:00:00 3.3 52 Oeste 76 Oeste 0 -- -- 89
2019-01-23 06:00:00 3 47 Oeste 68 Oeste 0 -- -- 90
2019-01-23 05:00:00 2.9 44 Noroeste 66 Oeste 0 -- -- 90
2019-01-23 04:00:00 2.6 50 Noroeste 70 Oeste 0 -- -- 91
2019-01-23 03:00:00 2.7 48 Noroeste 64 Noroeste 0 -- -- 90
2019-01-23 02:00:00 2.6 39 Oeste 58 Noroeste 0 -- -- 90
2019-01-23 01:00:00 2.2 42 Noroeste 58 Oeste 0.2 -- -- 90
2019-01-23 00:00:00 2.3 43 Noroeste 62 Noroeste 0 -- -- 90
2019-01-22 23:00:00 2.2 35 Noroeste 51 Noroeste 0 -- -- 92
2019-01-22 22:00:00 1.9 33 Noroeste 50 Oeste 0 -- -- 92
2019-01-22 21:00:00 1.9 30 Noroeste 40 Noroeste 0 -- -- 94
2019-01-22 20:00:00 1.7 24 Noroeste 45 Noroeste 0.2 -- -- 93
2019-01-22 19:00:00 1.7 23 Noroeste 41 Noroeste 0 -- -- 94
2019-01-22 18:00:00 1.5 23 Noroeste 48 Noroeste 0 -- -- 95
2019-01-22 17:00:00 1.3 35 Noroeste 58 Noroeste 0 -- -- 94
2019-01-22 16:00:00 1.6 39 Noroeste 62 Noroeste 0 -- -- 91
2019-01-22 15:00:00 1.5 34 Oeste 51 Oeste 0 -- -- 90
2019-01-22 14:00:00 1.6 35 Oeste 55 Noroeste 0 -- -- 88
2019-01-22 13:00:00 2.4 27 Noroeste 45 Noroeste 0 -- -- 78
2019-01-22 12:00:00 1.8 30 Noroeste 42 Noroeste 0 -- -- 79
2019-01-22 11:00:00 1.4 30 Noroeste 41 Noroeste 0 -- -- 80
2019-01-22 10:00:00 0.6 12 Noroeste 22 Noroeste 0 -- -- 85
2019-01-22 09:00:00 0 8 Noroeste 19 Noroeste 0 -- -- 86
2019-01-22 08:00:00 -0.5 14 Noroeste 23 Noroeste 0 -- -- 85
2019-01-22 07:00:00 -0.6 13 Noroeste 27 Oeste 0 -- -- 84
2019-01-22 06:00:00 -1.2 15 Noroeste 24 Oeste 0 -- -- 87
2019-01-22 05:00:00 -1.4 8 Noroeste 19 Noroeste 0 -- -- 86
2019-01-22 04:00:00 -1.4 13 Noroeste 29 Oeste 0 -- -- 85
2019-01-22 03:00:00 -0.8 20 Noroeste 27 Noroeste 0 -- -- 82
2019-01-22 02:00:00 -1.2 19 Oeste 28 Noroeste 0 -- -- 82
2019-01-22 01:00:00 -1.1 17 Noroeste 27 Noroeste 0 -- -- 84
2019-01-22 00:00:00 -1.2 15 Noroeste 27 Oeste 0 -- -- 85
2019-01-21 23:00:00 -0.8 15 Noroeste 25 Noroeste 0 -- -- 83
2019-01-21 22:00:00 0 18 Noroeste 26 Noroeste 0 -- -- 78
2019-01-21 21:00:00 -0.1 20 Noroeste 30 Noroeste 0 -- -- 78
2019-01-21 20:00:00 0.3 21 Noroeste 38 Noroeste 0 -- -- 76
2019-01-21 19:00:00 1 22 Noroeste 40 Noroeste 0 -- -- 71
2019-01-21 18:00:00 2.5 31 Noroeste 44 Noroeste 0 -- -- 66
2019-01-21 17:00:00 4.6 25 Norte 41 Noroeste 0 -- -- 53
2019-01-21 16:00:00 6.2 13 Norte 29 Norte 0 -- -- 57
2019-01-21 15:00:00 5.3 18 Norte 35 Noroeste 0 -- -- 60
2019-01-21 14:00:00 4.8 22 Noroeste 47 Noroeste 0 -- -- 68
2019-01-21 13:00:00 3 26 Noroeste 39 Noroeste 0 -- -- 75
2019-01-21 12:00:00 2.7 22 Noroeste 36 Noroeste 0 -- -- 81
2019-01-21 11:00:00 1.4 24 Noroeste 37 Oeste 0 -- -- 92
2019-01-21 10:00:00 0 26 Noroeste 39 Noroeste 0 -- -- 96
2019-01-21 09:00:00 -0.2 26 Noroeste 34 Noroeste 0 -- -- 96
2019-01-21 08:00:00 -0.3 25 Noroeste 41 Noroeste 0 -- -- 95
2019-01-21 07:00:00 0.2 19 Noroeste 36 Noroeste 0 -- -- 95
2019-01-21 06:00:00 0.1 21 Noroeste 39 Noroeste 0 -- -- 96
2019-01-21 05:00:00 0 22 Noroeste 39 Oeste 0 -- -- 96
2019-01-21 04:00:00 -0.2 18 Noroeste 31 Oeste 0 -- -- 95
2019-01-21 03:00:00 0 25 Noroeste 33 Oeste 0 -- -- 96
2019-01-21 02:00:00 0.1 18 Noroeste 26 Noroeste 0 -- -- 96
2019-01-21 01:00:00 0.2 12 Noroeste 28 Oeste 0 -- -- 94
2019-01-21 00:00:00 0.4 18 Noroeste 32 Oeste 0 -- -- 95
2019-01-20 23:00:00 0.6 22 Noroeste 31 Noroeste 0 -- -- 94
2019-01-20 22:00:00 1 22 Noroeste 33 Noroeste 0 -- -- 92
2019-01-20 21:00:00 1.3 22 Noroeste 39 Noroeste 0 -- -- 91
2019-01-20 20:00:00 1.6 22 Noroeste 33 Noroeste 0 -- -- 90
2019-01-20 19:00:00 2.2 16 Noroeste 31 Norte 0 -- -- 86
2019-01-20 18:00:00 3.5 21 Noroeste 39 Noroeste 0 -- -- 83
2019-01-20 17:00:00 5.4 29 Noroeste 45 Noroeste 0 -- -- 76
2019-01-20 16:00:00 5.4 29 Noroeste 48 Noroeste 0 -- -- 79
2019-01-20 15:00:00 5.5 31 Noroeste 48 Noroeste 0 -- -- 76
2019-01-20 14:00:00 5.1 28 Noroeste 40 Noroeste 0 -- -- 75
2019-01-20 13:00:00 4.8 24 Noroeste 34 Noroeste 0 -- -- 83
2019-01-20 12:00:00 3.3 26 Noroeste 38 Noroeste 0 -- -- 93
2019-01-20 11:00:00 2.1 13 Noroeste 24 Noroeste 0 -- -- 97
2019-01-20 10:00:00 1.8 12 Noroeste 30 Noroeste 0 -- -- 98
2019-01-20 09:00:00 0.8 5 Noroeste 16 Norte 0 -- -- 100
2019-01-20 08:00:00 1.2 11 Noroeste 19 Norte 0 -- -- 99
2019-01-20 07:00:00 1 5 Norte 11 Norte 0.2 -- -- 99
2019-01-20 06:00:00 0.8 6 Noroeste 16 Norte 0.6 -- -- 99
2019-01-20 05:00:00 1.5 9 Norte 15 Noroeste 0.4 -- -- 98
2019-01-20 04:00:00 1.6 0 Calma 12 Sudoeste 0.2 -- -- 97
2019-01-20 03:00:00 1.3 3 Oeste 31 Sudoeste 1 -- -- 97
2019-01-20 02:00:00 1.1 22 Sudoeste 38 Sudoeste 1.2 -- -- 97
2019-01-20 01:00:00 1.1 33 Sudoeste 46 Sudoeste 0.8 -- -- 96
2019-01-20 00:00:00 0.9 34 Sudoeste 45 Sudoeste 0.4 -- -- 96
2019-01-19 23:00:00 0.8 31 Sudoeste 42 Sudoeste 0.4 -- -- 95
2019-01-19 22:00:00 0.6 34 Sudoeste 45 Sudoeste 0.8 -- -- 95
2019-01-19 21:00:00 0.4 32 Sudoeste 46 Sudoeste 1 -- -- 96
2019-01-19 20:00:00 0.4 37 Sudoeste 47 Sudoeste 0.6 -- -- 96
2019-01-19 19:00:00 0.4 34 Sudoeste 45 Sur 0.2 -- -- 96
2019-01-19 18:00:00 0.5 34 Sudoeste 46 Sudoeste 0.2 -- -- 96
2019-01-19 17:00:00 1 30 Sur 42 Sudoeste 0.2 -- -- 93
2019-01-19 16:00:00 1.5 14 Sur 35 Sudoeste 0 -- -- 91
2019-01-19 15:00:00 2.6 26 Sudoeste 40 Sudoeste 0 -- -- 83
2019-01-19 14:00:00 2.9 30 Sudoeste 40 Sudoeste 0 -- -- 77
2019-01-19 13:00:00 3.3 24 Sudoeste 35 Sudoeste 0 -- -- 77
2019-01-19 12:00:00 3.1 22 Sudoeste 30 Sudoeste 0 -- -- 79
2019-01-19 11:00:00 1.6 19 Sur 25 Sur 0 -- -- 85
2019-01-19 10:00:00 0.8 14 Oeste 23 Oeste 0 -- -- 90
2019-01-19 09:00:00 0.7 14 Noroeste 22 Noroeste 0 -- -- 91
2019-01-19 08:00:00 0.6 5 Noroeste 12 Oeste 0 -- -- 93
2019-01-19 07:00:00 0.6 9 Noroeste 18 Noroeste 0 -- -- 94
2019-01-19 06:00:00 0.5 11 Noroeste 25 Noroeste 0 -- -- 95
2019-01-19 05:00:00 0.1 10 Noroeste 21 Noroeste 0 -- -- 97
2019-01-19 04:00:00 0.4 9 Noroeste 16 Noroeste 0 -- -- 95
2019-01-19 03:00:00 0 4 Noroeste 13 Noroeste 0 -- -- 95
2019-01-19 02:00:00 0.2 8 Noroeste 20 Noroeste 0 -- -- 92
2019-01-19 01:00:00 0.4 12 Noroeste 27 Noroeste 0 -- -- 92
2019-01-19 00:00:00 0.8 18 Noroeste 27 Noroeste 0 -- -- 93